sensor_id;sensor_type;location;lat;lon;timestamp;pressure;altitude;pressure_sealevel;temperature;humidity
15558;BME280;7880;50.110;9.372;2022-07-23T00:00:14;19.31686789082014;;;18.812;88.50754942353126
15558;BME280;7880;50.110;9.372;2022-07-23T00:05:10;19.3118250813568;;;18.75;89.13228099007749
15558;BME280;7880;50.110;9.372;2022-07-23T00:10:18;19.29165384641383;;;18.687;87.65473366795973
15558;BME280;7880;50.110;9.372;2022-07-23T00:15:17;19.100027346704156;;;18.625;88.95816629012606
15558;BME280;7880;50.110;9.372;2022-07-23T00:20:21;19.33703913158388;;;18.812;87.25881673873157
15558;BME280;7880;50.110;9.372;2022-07-23T00:25:26;19.548837440746137;;;19.0;86.58690447950222
15558;BME280;7880;50.110;9.372;2022-07-23T00:30:41;19.569008735060926;;;19.062;86.32690343915871
15558;BME280;7880;50.110;9.372;2022-07-23T00:35:44;19.488323585741455;;;19.125;86.18430165212213
15558;BME280;7880;50.110;9.372;2022-07-23T00:40:47;19.266439809283476;;;18.875;88.13833161344589
15558;BME280;7880;50.110;9.372;2022-07-23T00:45:51;19.28156823068857;;;18.812;87.40767160663128
15558;BME280;7880;50.110;9.372;2022-07-23T00:50:55;19.372338814125396;;;18.812;87.06488545054056
15558;BME280;7880;50.110;9.372;2022-07-23T00:56:08;19.387467253865907;;;18.937;87.13609459899928
15558;BME280;7880;50.110;9.372;2022-07-23T01:01:06;19.2563541964686;;;18.812;88.58613025184982
15558;BME280;7880;50.110;9.372;2022-07-23T01:06:10;19.2260973650089;;;18.812;87.95202424697311
15558;BME280;7880;50.110;9.372;2022-07-23T01:11:17;19.155498132348292;;;18.625;88.36083374264221
15558;BME280;7880;50.110;9.372;2022-07-23T01:16:24;19.20592614985653;;;18.687;87.58628368358745
15558;BME280;7880;50.110;9.372;2022-07-23T01:21:28;19.084898956731195;;;18.687;87.97876930347017
15558;BME280;7880;50.110;9.372;2022-07-23T01:26:26;18.762160594627495;;;18.375;90.98946311326876
15558;BME280;7880;50.110;9.372;2022-07-23T01:31:34;18.731903934298316;;;18.312;91.04449449658671
15558;BME280;7880;50.110;9.372;2022-07-23T01:36:37;18.631048475537682;;;18.25;90.14698941629769
15558;BME280;7880;50.110;9.372;2022-07-23T01:41:42;18.802502824697875;;;18.312;87.9467191065481
15558;BME280;7880;50.110;9.372;2022-07-23T01:46:45;18.968914720625616;;;18.562;87.93355890906393
15558;BME280;7880;50.110;9.372;2022-07-23T01:52:00;18.92857241372112;;;18.437;88.6393016152711
15558;BME280;7880;50.110;9.372;2022-07-23T01:56:57;19.03447100907215;;;18.5;87.18760447602617
15558;BME280;7880;50.110;9.372;2022-07-23T02:02:01;18.99412867189967;;;18.562;87.5838214828306
15558;BME280;7880;50.110;9.372;2022-07-23T02:07:07;18.66634787286166;;;18.312;90.26853300034186
15558;BME280;7880;50.110;9.372;2022-07-23T02:12:11;18.87814455628395;;;18.375;88.30243155304987
15558;BME280;7880;50.110;9.372;2022-07-23T02:17:16;18.802502824697875;;;18.25;88.6408146611543
15558;BME280;7880;50.110;9.372;2022-07-23T02:22:19;18.857973421458155;;;18.312;88.26274680756121
15558;BME280;7880;50.110;9.372;2022-07-23T02:27:22;18.8529306384793;;;18.375;88.16605198030564
15558;BME280;7880;50.110;9.372;2022-07-23T02:32:26;18.74198948657722;;;18.375;91.58440363909942
15558;BME280;7880;50.110;9.372;2022-07-23T02:37:30;18.686518963449636;;;18.25;90.75100987912134
15558;BME280;7880;50.110;9.372;2022-07-23T02:42:33;18.84284507339471;;;18.312;90.59366399559173
15558;BME280;7880;50.110;9.372;2022-07-23T02:47:37;18.45959446281777;;;18.125;92.79695693729218
15558;BME280;7880;50.110;9.372;2022-07-23T02:52:44;18.44950894313515;;;17.937;92.92356200806611
15558;BME280;7880;50.110;9.372;2022-07-23T02:57:51;18.560449723672356;;;18.0;91.36504858551973
15558;BME280;7880;50.110;9.372;2022-07-23T03:02:55;18.53019313319237;;;18.062;92.31548197493107
15558;BME280;7880;50.110;9.372;2022-07-23T03:07:56;18.504979315795936;;;18.125;92.23775972893407
15558;BME280;7880;50.110;9.372;2022-07-23T03:13:00;18.247798793955006;;;17.875;93.265771205939
15558;BME280;7880;50.110;9.372;2022-07-23T03:18:03;18.303269038558938;;;17.875;93.61353987108046
15558;BME280;7880;50.110;9.372;2022-07-23T03:23:08;18.24275604619179;;;17.75;93.3130563025266
15558;BME280;7880;50.110;9.372;2022-07-23T03:28:23;18.15198663622141;;;17.687;94.46189482631767
15558;BME280;7880;50.110;9.372;2022-07-23T03:33:28;18.197371329419546;;;17.687;94.12178368006218
15558;BME280;7880;50.110;9.372;2022-07-23T03:38:30;18.197371329419546;;;17.75;93.48834627230181
15558;BME280;7880;50.110;9.372;2022-07-23T03:43:35;18.06626005783328;;;17.687;94.54664050513077
15558;BME280;7880;50.110;9.372;2022-07-23T03:48:39;18.267969787918265;;;17.812;94.12015420971807
15558;BME280;7880;50.110;9.372;2022-07-23T03:53:46;18.388995849486673;;;17.937;95.51976031581745
15558;BME280;7880;50.110;9.372;2022-07-23T03:58:51;18.348653810337417;;;17.875;96.25949330642634
15558;BME280;7880;50.110;9.372;2022-07-23T04:03:53;18.278055286646122;;;17.875;95.75534346092407
15558;BME280;7880;50.110;9.372;2022-07-23T04:08:55;18.08643100988702;;;17.75;96.86282981180781
15558;BME280;7880;50.110;9.372;2022-07-23T04:14:07;17.77378177634091;;;17.437;99.60379017452235
15558;BME280;7880;50.110;9.372;2022-07-23T04:19:04;17.99061902910471;;;17.562;99.10835375339036
15558;BME280;7880;50.110;9.372;2022-07-23T04:24:08;17.894807153387227;;;17.5;99.47208041935242
15558;BME280;7880;50.110;9.372;2022-07-23T04:29:18;17.925063523842255;;;17.5;99.89051207794455
15558;BME280;7880;50.110;9.372;2022-07-23T04:34:16;18.15702937874594;;;17.687;97.65919207493904
15558;BME280;7880;50.110;9.372;2022-07-23T04:39:20;18.298226287594296;;;17.875;96.99757120110527
15558;BME280;7880;50.110;9.372;2022-07-23T04:44:23;18.37891033795313;;;17.937;96.45505844979421
15558;BME280;7880;50.110;9.372;2022-07-23T04:49:33;18.293183536920697;;;17.937;96.87455523749088
15558;BME280;7880;50.110;9.372;2022-07-23T04:54:36;18.293183536920697;;;17.875;96.77348852627696
15558;BME280;7880;50.110;9.372;2022-07-23T04:59:36;18.106601966597374;;;17.812;98.43898201554975
15558;BME280;7880;50.110;9.372;2022-07-23T05:04:40;18.16711486466811;;;17.812;97.77220341846532
15558;BME280;7880;50.110;9.372;2022-07-23T05:09:43;18.16711486466811;;;17.75;97.68714232569448
15558;BME280;7880;50.110;9.372;2022-07-23T05:14:47;18.03096090294421;;;17.687;98.98646030884187
15558;BME280;7880;50.110;9.372;2022-07-23T05:19:52;18.081388271437028;;;17.75;98.60025098121048
15558;BME280;7880;50.110;9.372;2022-07-23T05:24:56;18.0208754327381;;;17.687;98.83099436872266
15558;BME280;7880;50.110;9.372;2022-07-23T05:30:06;18.131815669033678;;;17.687;98.24048077132005
15558;BME280;7880;50.110;9.372;2022-07-23T05:34:52;18.146943893987917;;;17.75;98.28507466539195
15558;BME280;7880;50.110;9.372;2022-07-23T05:40:01;18.13685841039405;;;17.812;98.61320953549524
15558;BME280;7880;50.110;9.372;2022-07-23T05:45:03;18.177200351754436;;;17.875;98.82073266415394
15558;BME280;7880;50.110;9.372;2022-07-23T05:50:05;18.16711486466811;;;17.875;98.5217094951128
15558;BME280;7880;50.110;9.372;2022-07-23T05:55:09;18.348653810337417;;;17.937;97.1798773448421
15558;BME280;7880;50.110;9.372;2022-07-23T06:00:12;18.439423424616688;;;18.062;97.40489301298524
15558;BME280;7880;50.110;9.372;2022-07-23T06:05:16;18.54532142712269;;;18.187;96.25891034003163
15558;BME280;7880;50.110;9.372;2022-07-23T06:10:20;18.585663557075897;;;18.187;95.32713560116647
15558;BME280;7880;50.110;9.372;2022-07-23T06:15:30;18.53019313319237;;;18.25;95.7884450640375
15558;BME280;7880;50.110;9.372;2022-07-23T06:20:28;18.515064841881394;;;18.187;95.25937586677824
15558;BME280;7880;50.110;9.372;2022-07-23T06:25:32;18.6461767869303;;;18.312;94.9302136042446
15558;BME280;7880;50.110;9.372;2022-07-23T06:30:37;18.54027866218821;;;18.187;95.01770518207977
15558;BME280;7880;50.110;9.372;2022-07-23T06:35:43;18.53019313319237;;;18.187;95.79376889340345
15558;BME280;7880;50.110;9.372;2022-07-23T06:40:45;18.661305100942265;;;18.25;95.00141644333094
15558;BME280;7880;50.110;9.372;2022-07-23T06:45:51;18.474722744524477;;;18.25;95.95682489286227
15558;BME280;7880;50.110;9.372;2022-07-23T06:50:53;18.802502824697875;;;18.437;93.91652688805472
15558;BME280;7880;50.110;9.372;2022-07-23T06:55:56;18.908401267253794;;;18.5;93.66871181371273
15558;BME280;7880;50.110;9.372;2022-07-23T07:01:00;19.069770569377578;;;18.687;92.55279818333844
15558;BME280;7880;50.110;9.372;2022-07-23T07:06:05;19.13028413450811;;;18.687;93.2325852435776
15558;BME280;7880;50.110;9.372;2022-07-23T07:11:09;19.29165384641383;;;19.0;92.08373530083848
15558;BME280;7880;50.110;9.372;2022-07-23T07:16:12;19.432852588803506;;;19.062;92.2772618670247
15558;BME280;7880;50.110;9.372;2022-07-23T07:21:15;19.185754939360777;;;19.0;93.17015891403166
15558;BME280;7880;50.110;9.372;2022-07-23T07:26:17;19.2260973650089;;;18.875;94.19964173422105
15558;BME280;7880;50.110;9.372;2022-07-23T07:31:29;19.700122261611977;;;19.312;91.88255530549564
15558;BME280;7880;50.110;9.372;2022-07-23T07:36:26;19.957307058223524;;;19.562;91.70530206372847
15558;BME280;7880;50.110;9.372;2022-07-23T07:41:39;19.871578708576273;;;19.625;88.96699202576768
15558;BME280;7880;50.110;9.372;2022-07-23T07:46:37;19.750550593441584;;;19.562;88.54110742345023
15558;BME280;7880;50.110;9.372;2022-07-23T07:51:38;20.063206900382646;;;19.75;88.2180779656272
15558;BME280;7880;50.110;9.372;2022-07-23T07:56:43;20.249792648851873;;;20.0;87.69278069107207
15558;BME280;7880;50.110;9.372;2022-07-23T08:01:46;20.643136883364058;;;20.312;84.95794754565341
15558;BME280;7880;50.110;9.372;2022-07-23T08:06:49;20.64817976966151;;;20.375;84.53983281723045
15558;BME280;7880;50.110;9.372;2022-07-23T08:11:54;20.839809664624045;;;20.625;83.5287241374141
15558;BME280;7880;50.110;9.372;2022-07-23T08:16:59;21.04152579755173;;;20.75;83.49026166967147
15558;BME280;7880;50.110;9.372;2022-07-23T08:22:06;21.081869080016624;;;20.812;83.73623160806743
15558;BME280;7880;50.110;9.372;2022-07-23T08:27:06;21.09195490354323;;;20.937;83.19979464492855
15558;BME280;7880;50.110;9.372;2022-07-23T08:32:11;21.15246986915008;;;20.875;82.58227666398378
15558;BME280;7880;50.110;9.372;2022-07-23T08:37:16;21.122212381107964;;;20.875;83.1061057200749
15558;BME280;7880;50.110;9.372;2022-07-23T08:42:21;21.03648288855329;;;20.75;84.52139884649111
15558;BME280;7880;50.110;9.372;2022-07-23T08:47:49;21.515560542891034;;;21.187;82.50559662170802
15558;BME280;7880;50.110;9.372;2022-07-23T08:52:35;21.55590404421673;;;21.25;81.17463871169593
15558;BME280;7880;50.110;9.372;2022-07-23T08:57:36;21.863523854315282;;;21.437;80.929594507186
15558;BME280;7880;50.110;9.372;2022-07-23T09:02:40;21.84839498587535;;;21.625;79.91504085840823
15558;BME280;7880;50.110;9.372;2022-07-23T09:08:04;22.18627367168665;;;21.875;78.26883666830823
15558;BME280;7880;50.110;9.372;2022-07-23T09:12:46;22.408164862636475;;;22.125;79.03376702100883
15558;BME280;7880;50.110;9.372;2022-07-23T09:17:51;22.22157450528466;;;22.0;77.01970792220918
15558;BME280;7880;50.110;9.372;2022-07-23T09:22:55;22.34260604302981;;;22.062;76.4523634554099
15558;BME280;7880;50.110;9.372;2022-07-23T09:27:59;21.858480897877598;;;21.75;76.86397903979744
15558;BME280;7880;50.110;9.372;2022-07-23T09:33:08;22.645185620809208;;;22.187;78.50992095093181
15558;BME280;7880;50.110;9.372;2022-07-23T09:38:05;21.979511932708554;;;21.812;75.90305245875848
15558;BME280;7880;50.110;9.372;2022-07-23T09:43:26;22.443465785874288;;;22.0;74.97500404839057
15558;BME280;7880;50.110;9.372;2022-07-23T09:48:17;22.715787673048908;;;22.375;74.87845578403098
15558;BME280;7880;50.110;9.372;2022-07-23T09:53:32;22.09045719523565;;;22.0;75.63169075812395
15558;BME280;7880;50.110;9.372;2022-07-23T09:58:30;22.514067675132537;;;22.312;72.37425202788003
15558;BME280;7880;50.110;9.372;2022-07-23T10:03:43;22.544325645134087;;;22.375;72.97705825747019
15558;BME280;7880;50.110;9.372;2022-07-23T10:08:51;22.705701662093634;;;22.5;71.88013500548962
15558;BME280;7880;50.110;9.372;2022-07-23T10:13:59;22.640142619260587;;;22.312;73.04403770581382
15558;BME280;7880;50.110;9.372;2022-07-23T10:18:46;22.514067675132537;;;22.312;67.12251217533733
15558;BME280;7880;50.110;9.372;2022-07-23T10:24:01;23.09905695198686;;;22.687;65.37495372452246
15558;BME280;7880;50.110;9.372;2022-07-23T10:29:13;22.751088720560073;;;22.437;67.2679901842971
15558;BME280;7880;50.110;9.372;2022-07-23T10:34:14;23.18983150111162;;;22.875;66.11335746358502
15558;BME280;7880;50.110;9.372;2022-07-23T10:39:13;22.978024366503814;;;22.812;68.05826582544555
15558;BME280;7880;50.110;9.372;2022-07-23T10:44:11;23.11418603695929;;;22.687;67.12883239433175
15558;BME280;7880;50.110;9.372;2022-07-23T10:49:23;23.57310285922722;;;23.187;64.57759748721993
15558;BME280;7880;50.110;9.372;2022-07-23T10:54:21;22.952809265628456;;;23.0;66.7766899384019
15558;BME280;7880;50.110;9.372;2022-07-23T10:59:26;22.67544363621273;;;22.562;66.63969105114185
15558;BME280;7880;50.110;9.372;2022-07-23T11:04:49;23.129315124551066;;;22.687;66.28869126273227
15558;BME280;7880;50.110;9.372;2022-07-23T11:09:40;24.006806686572965;;;23.5;65.02735235733215
15558;BME280;7880;50.110;9.372;2022-07-23T11:14:58;23.79499757174053;;;23.625;61.630974280287624
15558;BME280;7880;50.110;9.372;2022-07-23T11:20:22;23.578145914617927;;;23.375;62.49545876965019
15558;BME280;7880;50.110;9.372;2022-07-23T11:25:05;23.875686697807396;;;23.562;58.53618432653443
15558;BME280;7880;50.110;9.372;2022-07-23T11:30:11;24.460685089981418;;;24.125;58.24055748301334
15558;BME280;7880;50.110;9.372;2022-07-23T11:35:21;24.80361700268113;;;24.625;57.5347782219614
15558;BME280;7880;50.110;9.372;2022-07-23T11:40:20;24.39512473049108;;;24.25;58.34132128967763
15558;BME280;7880;50.110;9.372;2022-07-23T11:45:32;24.50102995103807;;;24.25;56.550247270264826
15558;BME280;7880;50.110;9.372;2022-07-23T11:50:33;24.551461053552337;;;24.312;55.023041708907385
15558;BME280;7880;50.110;9.372;2022-07-23T11:55:34;24.70275453571812;;;24.375;54.61874719161272
15558;BME280;7880;50.110;9.372;2022-07-23T12:00:41;25.0709031031467;;;24.937;53.565172030608004
15558;BME280;7880;50.110;9.372;2022-07-23T12:05:41;25.045687398366862;;;24.937;53.68469373279533
15558;BME280;7880;50.110;9.372;2022-07-23T12:10:58;25.0709031031467;;;24.812;50.70236264690775
15558;BME280;7880;50.110;9.372;2022-07-23T12:15:52;24.299305832019307;;;24.125;53.76321526470487
15558;BME280;7880;50.110;9.372;2022-07-23T12:20:55;24.90447958605946;;;24.5;53.29159059795615
15558;BME280;7880;50.110;9.372;2022-07-23T12:26:01;25.101161958486774;;;24.875;50.566265164293725
15558;BME280;7880;50.110;9.372;2022-07-23T12:31:04;25.52983020139509;;;25.312;50.813398901847926
15558;BME280;7880;50.110;9.372;2022-07-23T12:36:12;24.85404827981838;;;24.937;50.942789059407545
15558;BME280;7880;50.110;9.372;2022-07-23T12:41:15;24.924652116704966;;;24.562;52.312953225620696
15558;BME280;7880;50.110;9.372;2022-07-23T12:46:18;24.79353075074614;;;24.687;49.76435475561511
15558;BME280;7880;50.110;9.372;2022-07-23T12:51:22;24.75822887814138;;;24.562;50.40384582199864
15558;BME280;7880;50.110;9.372;2022-07-23T12:56:28;24.50102995103807;;;24.312;49.565527903040476
15558;BME280;7880;50.110;9.372;2022-07-23T13:01:33;24.445555771887303;;;24.25;50.37913212116683
15558;BME280;7880;50.110;9.372;2022-07-23T13:06:35;24.596849070698955;;;24.312;50.43785861412222
15558;BME280;7880;50.110;9.372;2022-07-23T13:11:41;24.692668295424664;;;24.5;48.66157037556438
15558;BME280;7880;50.110;9.372;2022-07-23T13:16:45;24.95491092140437;;;24.75;47.6429570357874
15558;BME280;7880;50.110;9.372;2022-07-23T13:21:48;24.959954056539573;;;24.875;47.34714214714159
15558;BME280;7880;50.110;9.372;2022-07-23T13:26:52;24.86413453873829;;;24.812;47.07678030947009
15558;BME280;7880;50.110;9.372;2022-07-23T13:31:58;24.88430706007057;;;24.687;47.85519138342234
15558;BME280;7880;50.110;9.372;2022-07-23T13:37:09;25.418880572129275;;;25.187;48.02529738424985
15558;BME280;7880;50.110;9.372;2022-07-23T13:42:13;25.176809142675484;;;25.062;47.280105488232216
15558;BME280;7880;50.110;9.372;2022-07-23T13:47:18;25.06081682036165;;;25.0;45.98396999410891
15558;BME280;7880;50.110;9.372;2022-07-23T13:52:23;25.141507115238348;;;25.0;46.566619692202174
15558;BME280;7880;50.110;9.372;2022-07-23T13:57:34;25.32306055112276;;;25.187;46.61921387714933
15558;BME280;7880;50.110;9.372;2022-07-23T14:02:36;25.176809142675484;;;25.125;45.49767936862827
15558;BME280;7880;50.110;9.372;2022-07-23T14:07:43;25.33819002113887;;;25.187;45.47820488019868
15558;BME280;7880;50.110;9.372;2022-07-23T14:12:43;25.560089215642073;;;25.437;46.49169522878051
15558;BME280;7880;50.110;9.372;2022-07-23T14:17:46;25.655909496545792;;;25.437;47.613159501771044
15558;BME280;7880;50.110;9.372;2022-07-23T14:22:52;25.82233444466838;;;25.687;47.616465066327024
15558;BME280;7880;50.110;9.372;2022-07-23T14:27:55;25.494528031349184;;;25.437;44.953530232582
15558;BME280;7880;50.110;9.372;2022-07-23T14:32:59;25.560089215642073;;;25.437;45.16860735506994
15558;BME280;7880;50.110;9.372;2022-07-23T14:38:03;25.630693622963737;;;25.562;44.18643292605721
15558;BME280;7880;50.110;9.372;2022-07-23T14:43:11;25.620607275568183;;;25.437;44.9168510698446
15558;BME280;7880;50.110;9.372;2022-07-23T14:48:09;25.580261897627498;;;25.5;44.00454372125201
15558;BME280;7880;50.110;9.372;2022-07-23T14:53:15;25.892939063865924;;;25.75;44.93161269487202
15558;BME280;7880;50.110;9.372;2022-07-23T14:58:16;25.52983020139509;;;25.5;44.70691989885399
15558;BME280;7880;50.110;9.372;2022-07-23T15:03:27;25.681125377403806;;;25.562;45.000084656108726
15558;BME280;7880;50.110;9.372;2022-07-23T15:08:33;25.28775846460485;;;25.375;44.33041257058819
15558;BME280;7880;50.110;9.372;2022-07-23T15:13:27;25.787032156460917;;;25.562;45.33669574580971
15558;BME280;7880;50.110;9.372;2022-07-23T15:18:31;25.665995848015882;;;25.687;44.434084027707904
15558;BME280;7880;50.110;9.372;2022-07-23T15:23:39;25.277672156790505;;;25.25;44.88462237159012
15558;BME280;7880;50.110;9.372;2022-07-23T15:28:46;25.42392373404;;;25.187;45.605754450385234
15558;BME280;7880;50.110;9.372;2022-07-23T15:33:44;25.333146864175795;;;25.187;44.759153524789205
15558;BME280;7880;50.110;9.372;2022-07-23T15:38:48;25.39366476694122;;;25.25;44.27685416086562
15558;BME280;7880;50.110;9.372;2022-07-23T15:43:19;25.746686701686123;;;25.562;43.30305429113905
15558;BME280;7880;50.110;9.372;2022-07-23T15:48:19;25.741643521148944;;;25.625;43.478879522310066
15558;BME280;7880;50.110;9.372;2022-07-23T15:53:31;25.75677306363359;;;25.625;44.16050076348329
15558;BME280;7880;50.110;9.372;2022-07-23T15:58:27;25.741643521148944;;;25.687;43.62177282855645
15558;BME280;7880;50.110;9.372;2022-07-23T16:03:30;25.751729882514336;;;25.625;44.775827934281786
15558;BME280;7880;50.110;9.372;2022-07-23T16:08:44;25.76181624504388;;;25.75;43.45710898344066
15558;BME280;7880;50.110;9.372;2022-07-23T16:13:49;25.701298087328905;;;25.625;44.55540104131403
15558;BME280;7880;50.110;9.372;2022-07-23T16:18:42;25.741643521148944;;;25.687;45.12728419029157
15558;BME280;7880;50.110;9.372;2022-07-23T16:23:43;25.751729882514336;;;25.625;45.154895845615485
15558;BME280;7880;50.110;9.372;2022-07-23T16:28:51;25.681125377403806;;;25.562;44.85177541146851
15558;BME280;7880;50.110;9.372;2022-07-23T16:34:00;25.504614364192822;;;25.437;44.77796403961558
15558;BME280;7880;50.110;9.372;2022-07-23T16:38:59;25.398707927396753;;;25.25;45.03452435004581
15558;BME280;7880;50.110;9.372;2022-07-23T16:44:01;25.474355369154363;;;25.25;44.761079305161644
15558;BME280;7880;50.110;9.372;2022-07-23T16:49:05;25.68616855444852;;;25.5;43.75853903791476
15558;BME280;7880;50.110;9.372;2022-07-23T16:54:22;25.49957119762548;;;25.375;44.41547357665682
15558;BME280;7880;50.110;9.372;2022-07-23T16:59:13;25.403751088143327;;;25.187;44.370319390589394
15558;BME280;7880;50.110;9.372;2022-07-23T17:04:18;25.47939853426651;;;25.25;44.23948912103839
15558;BME280;7880;50.110;9.372;2022-07-23T17:09:21;25.59034824036644;;;25.375;44.22988163918832
15558;BME280;7880;50.110;9.372;2022-07-23T17:14:25;25.469312204333256;;;25.312;44.069124612849784
15558;BME280;7880;50.110;9.372;2022-07-23T17:19:30;25.494528031349184;;;25.312;43.13565650643802
15558;BME280;7880;50.110;9.372;2022-07-23T17:24:34;25.282715310552156;;;25.125;43.97903392977512
15558;BME280;7880;50.110;9.372;2022-07-23T17:29:40;25.348276335938134;;;25.125;44.36412075110499
15558;BME280;7880;50.110;9.372;2022-07-23T17:34:41;25.20706803468638;;;25.0;44.675115792092846
15558;BME280;7880;50.110;9.372;2022-07-23T17:39:44;25.06585996160866;;;24.875;44.87616972068819
15558;BME280;7880;50.110;9.372;2022-07-23T17:44:47;24.985169736581156;;;24.812;44.72146703646242
15558;BME280;7880;50.110;9.372;2022-07-23T17:49:51;24.924652116704966;;;24.687;44.96192239078172
15558;BME280;7880;50.110;9.372;2022-07-23T17:54:54;24.82378951004357;;;24.625;45.2784413145409
15558;BME280;7880;50.110;9.372;2022-07-23T18:00:00;24.7229270197975;;;24.5;44.81103899501001
15558;BME280;7880;50.110;9.372;2022-07-23T18:05:03;24.632150878111133;;;24.375;45.07828507816128
15558;BME280;7880;50.110;9.372;2022-07-23T18:10:06;24.576676615723407;;;24.312;45.817073904942745
15558;BME280;7880;50.110;9.372;2022-07-23T18:15:10;24.490943734027677;;;24.187;45.96354435770553
15558;BME280;7880;50.110;9.372;2022-07-23T18:20:14;24.344693718198688;;;24.062;45.86254784703004
15558;BME280;7880;50.110;9.372;2022-07-23T18:25:17;24.218616314796964;;;23.937;46.637605158504314
15558;BME280;7880;50.110;9.372;2022-07-23T18:30:22;24.067323670821498;;;23.75;47.01773301179599
15558;BME280;7880;50.110;9.372;2022-07-23T18:35:29;23.956375898380067;;;23.687;48.04350130698529
15558;BME280;7880;50.110;9.372;2022-07-23T18:40:30;23.84542826680117;;;23.5;51.33514288341491
15558;BME280;7880;50.110;9.372;2022-07-23T18:45:34;23.608404253073967;;;23.312;53.65768814222154
15558;BME280;7880;50.110;9.372;2022-07-23T18:50:39;23.36633783879224;;;22.937;55.95960483902101
15558;BME280;7880;50.110;9.372;2022-07-23T18:55:42;23.28564918304328;;;22.875;55.84749468603914
15558;BME280;7880;50.110;9.372;2022-07-23T19:00:45;22.947766246326502;;;22.562;57.12366113708695
15558;BME280;7880;50.110;9.372;2022-07-23T19:05:48;22.61997061597649;;;22.187;58.2945595763873
15558;BME280;7880;50.110;9.372;2022-07-23T19:10:52;22.584669621434294;;;22.062;58.46683339729905
15558;BME280;7880;50.110;9.372;2022-07-23T19:16:04;22.372863953659543;;;21.937;59.22281425922858
15558;BME280;7880;50.110;9.372;2022-07-23T19:21:01;22.201402598625283;;;21.625;60.63635234443657
15558;BME280;7880;50.110;9.372;2022-07-23T19:26:04;21.924039354268462;;;21.375;61.35957869532768
15558;BME280;7880;50.110;9.372;2022-07-23T19:31:10;21.707192340079928;;;21.125;62.37745834458524
15558;BME280;7880;50.110;9.372;2022-07-23T19:36:13;21.646676990302513;;;20.937;63.727740349310366
15558;BME280;7880;50.110;9.372;2022-07-23T19:41:18;21.576075801864498;;;20.875;63.03621275700267
15558;BME280;7880;50.110;9.372;2022-07-23T19:46:20;21.339057943597435;;;20.687;64.369856219132
15558;BME280;7880;50.110;9.372;2022-07-23T19:51:24;21.202899039170006;;;20.375;64.67535392134944
15558;BME280;7880;50.110;9.372;2022-07-23T19:56:27;21.182727367669578;;;20.375;64.51736071809984
15558;BME280;7880;50.110;9.372;2022-07-23T20:01:35;20.915453159902246;;;20.312;65.65204134448145
15558;BME280;7880;50.110;9.372;2022-07-23T20:06:35;21.046568706841207;;;20.25;64.50381501511038
15558;BME280;7880;50.110;9.372;2022-07-23T20:11:38;20.89023865420022;;;20.0;65.57485232791467
15558;BME280;7880;50.110;9.372;2022-07-23T20:16:42;20.723823099047877;;;19.75;65.81283023783419
15558;BME280;7880;50.110;9.372;2022-07-23T20:21:46;20.50697906334535;;;19.687;66.68941186980814
15558;BME280;7880;50.110;9.372;2022-07-23T20:26:51;20.375864326074954;;;19.562;66.68628142336871
15558;BME280;7880;50.110;9.372;2022-07-23T20:31:54;20.204406889580422;;;19.375;66.85302031047482
15558;BME280;7880;50.110;9.372;2022-07-23T20:36:59;20.380907196947373;;;19.5;66.83221979147739
15558;BME280;7880;50.110;9.372;2022-07-23T20:42:03;20.138849723362362;;;19.312;67.25294168870825
15558;BME280;7880;50.110;9.372;2022-07-23T20:45:28;19.937135674268937;;;19.187;67.75662443103333
15558;BME280;7880;50.110;9.372;2022-07-23T20:50:31;19.821150306897472;;;19.062;67.94799521080485